sensor_id;sensor_type;location;lat;lon;timestamp;pressure;altitude;pressure_sealevel;temperature;humidity
44140;BME280;29803;51.048;4.686;2022-08-21T00:00:01;101743.72;;;12.47;100.00
44140;BME280;29803;51.048;4.686;2022-08-21T00:02:31;101740.19;;;12.47;100.00
44140;BME280;29803;51.048;4.686;2022-08-21T00:05:03;101746.59;;;12.46;100.00
44140;BME280;29803;51.048;4.686;2022-08-21T00:07:34;101738.13;;;12.40;100.00
44140;BME280;29803;51.048;4.686;2022-08-21T00:10:05;101733.91;;;12.38;100.00
44140;BME280;29803;51.048;4.686;2022-08-21T00:12:36;101723.59;;;12.33;100.00
44140;BME280;29803;51.048;4.686;2022-08-21T00:15:09;101724.78;;;12.31;100.00
44140;BME280;29803;51.048;4.686;2022-08-21T00:17:40;101719.84;;;12.26;100.00
44140;BME280;29803;51.048;4.686;2022-08-21T00:20:12;101723.00;;;12.22;100.00
44140;BME280;29803;51.048;4.686;2022-08-21T00:22:44;101722.47;;;12.18;100.00
44140;BME280;29803;51.048;4.686;2022-08-21T00:25:16;101713.84;;;12.14;100.00
44140;BME280;29803;51.048;4.686;2022-08-21T00:27:46;101715.03;;;12.12;100.00
44140;BME280;29803;51.048;4.686;2022-08-21T00:30:19;101709.81;;;12.10;100.00
44140;BME280;29803;51.048;4.686;2022-08-21T00:32:52;101712.81;;;12.07;100.00
44140;BME280;29803;51.048;4.686;2022-08-21T00:35:27;101710.41;;;12.04;100.00
44140;BME280;29803;51.048;4.686;2022-08-21T00:37:58;101705.38;;;12.01;100.00
44140;BME280;29803;51.048;4.686;2022-08-21T00:40:37;101701.28;;;11.97;100.00
44140;BME280;29803;51.048;4.686;2022-08-21T00:43:09;101713.19;;;11.95;100.00
44140;BME280;29803;51.048;4.686;2022-08-21T00:45:40;101707.28;;;11.91;100.00
44140;BME280;29803;51.048;4.686;2022-08-21T00:48:11;101714.97;;;11.86;100.00
44140;BME280;29803;51.048;4.686;2022-08-21T00:50:46;101710.03;;;11.81;100.00
44140;BME280;29803;51.048;4.686;2022-08-21T00:53:18;101717.25;;;11.81;100.00
44140;BME280;29803;51.048;4.686;2022-08-21T00:55:49;101719.94;;;11.81;100.00
44140;BME280;29803;51.048;4.686;2022-08-21T00:58:21;101711.88;;;11.81;100.00
44140;BME280;29803;51.048;4.686;2022-08-21T01:00:52;101716.84;;;11.76;100.00
44140;BME280;29803;51.048;4.686;2022-08-21T01:03:23;101712.63;;;11.73;100.00
44140;BME280;29803;51.048;4.686;2022-08-21T01:05:55;101720.00;;;11.71;100.00
44140;BME280;29803;51.048;4.686;2022-08-21T01:08:27;101720.13;;;11.70;100.00
44140;BME280;29803;51.048;4.686;2022-08-21T01:11:00;101721.13;;;11.68;100.00
44140;BME280;29803;51.048;4.686;2022-08-21T01:13:34;101708.03;;;11.65;100.00
44140;BME280;29803;51.048;4.686;2022-08-21T01:16:09;101710.16;;;11.62;100.00
44140;BME280;29803;51.048;4.686;2022-08-21T01:18:40;101711.28;;;11.59;100.00
44140;BME280;29803;51.048;4.686;2022-08-21T01:21:14;101717.16;;;11.55;100.00
44140;BME280;29803;51.048;4.686;2022-08-21T01:23:50;101715.75;;;11.51;100.00
44140;BME280;29803;51.048;4.686;2022-08-21T01:26:24;101711.66;;;11.47;100.00
44140;BME280;29803;51.048;4.686;2022-08-21T01:28:59;101717.22;;;11.45;100.00
44140;BME280;29803;51.048;4.686;2022-08-21T01:31:31;101711.97;;;11.44;100.00
44140;BME280;29803;51.048;4.686;2022-08-21T01:34:03;101722.19;;;11.40;100.00
44140;BME280;29803;51.048;4.686;2022-08-21T01:36:34;101721.63;;;11.36;100.00
44140;BME280;29803;51.048;4.686;2022-08-21T01:39:05;101719.41;;;11.32;100.00
44140;BME280;29803;51.048;4.686;2022-08-21T01:41:37;101710.78;;;11.28;100.00
44140;BME280;29803;51.048;4.686;2022-08-21T01:44:08;101717.16;;;11.27;100.00
44140;BME280;29803;51.048;4.686;2022-08-21T01:46:38;101712.78;;;11.26;100.00
44140;BME280;29803;51.048;4.686;2022-08-21T01:49:09;101713.91;;;11.24;100.00
44140;BME280;29803;51.048;4.686;2022-08-21T01:51:39;101711.38;;;11.22;100.00
44140;BME280;29803;51.048;4.686;2022-08-21T01:54:11;101716.75;;;11.22;100.00
44140;BME280;29803;51.048;4.686;2022-08-21T01:56:45;101710.69;;;11.20;100.00
44140;BME280;29803;51.048;4.686;2022-08-21T01:59:16;101708.31;;;11.17;100.00
44140;BME280;29803;51.048;4.686;2022-08-21T02:01:50;101714.13;;;11.12;100.00
44140;BME280;29803;51.048;4.686;2022-08-21T02:04:22;101702.13;;;11.07;100.00
44140;BME280;29803;51.048;4.686;2022-08-21T02:06:53;101704.13;;;11.05;100.00
44140;BME280;29803;51.048;4.686;2022-08-21T02:09:33;101706.25;;;11.01;100.00
44140;BME280;29803;51.048;4.686;2022-08-21T02:12:04;101700.19;;;10.99;100.00
44140;BME280;29803;51.048;4.686;2022-08-21T02:14:35;101706.69;;;10.97;100.00
44140;BME280;29803;51.048;4.686;2022-08-21T02:17:07;101707.81;;;10.94;100.00
44140;BME280;29803;51.048;4.686;2022-08-21T02:19:38;101706.47;;;10.90;100.00
44140;BME280;29803;51.048;4.686;2022-08-21T02:22:09;101700.69;;;10.85;100.00
44140;BME280;29803;51.048;4.686;2022-08-21T02:24:40;101702.66;;;10.83;100.00
44140;BME280;29803;51.048;4.686;2022-08-21T02:27:10;101699.44;;;10.79;100.00
44140;BME280;29803;51.048;4.686;2022-08-21T02:29:41;101696.19;;;10.76;100.00
44140;BME280;29803;51.048;4.686;2022-08-21T02:32:11;101696.47;;;10.73;100.00
44140;BME280;29803;51.048;4.686;2022-08-21T02:34:42;101695.91;;;10.69;100.00
44140;BME280;29803;51.048;4.686;2022-08-21T02:37:12;101688.16;;;10.66;100.00
44140;BME280;29803;51.048;4.686;2022-08-21T02:39:43;101699.91;;;10.65;100.00
44140;BME280;29803;51.048;4.686;2022-08-21T02:42:13;101697.34;;;10.63;100.00
44140;BME280;29803;51.048;4.686;2022-08-21T02:44:44;101692.13;;;10.62;100.00
44140;BME280;29803;51.048;4.686;2022-08-21T02:47:14;101694.53;;;10.65;100.00
44140;BME280;29803;51.048;4.686;2022-08-21T02:49:45;101694.66;;;10.63;100.00
44140;BME280;29803;51.048;4.686;2022-08-21T02:52:15;101697.66;;;10.60;100.00
44140;BME280;29803;51.048;4.686;2022-08-21T02:54:46;101691.88;;;10.55;100.00
44140;BME280;29803;51.048;4.686;2022-08-21T02:57:16;101692.16;;;10.52;100.00
44140;BME280;29803;51.048;4.686;2022-08-21T02:59:47;101698.53;;;10.51;100.00
44140;BME280;29803;51.048;4.686;2022-08-21T03:02:17;101688.06;;;10.48;100.00
44140;BME280;29803;51.048;4.686;2022-08-21T03:04:48;101688.06;;;10.48;100.00
44140;BME280;29803;51.048;4.686;2022-08-21T03:07:19;101689.06;;;10.47;100.00
44140;BME280;29803;51.048;4.686;2022-08-21T03:09:49;101692.75;;;10.46;100.00
44140;BME280;29803;51.048;4.686;2022-08-21T03:12:20;101697.41;;;10.44;100.00
44140;BME280;29803;51.048;4.686;2022-08-21T03:14:50;101688.66;;;10.42;100.00
44140;BME280;29803;51.048;4.686;2022-08-21T03:17:21;101685.28;;;10.40;100.00
44140;BME280;29803;51.048;4.686;2022-08-21T03:19:52;101684.72;;;10.36;100.00
44140;BME280;29803;51.048;4.686;2022-08-21T03:22:22;101688.53;;;10.34;100.00
44140;BME280;29803;51.048;4.686;2022-08-21T03:24:53;101679.78;;;10.32;100.00
44140;BME280;29803;51.048;4.686;2022-08-21T03:27:23;101680.78;;;10.31;100.00
44140;BME280;29803;51.048;4.686;2022-08-21T03:29:55;101684.47;;;10.30;100.00
44140;BME280;29803;51.048;4.686;2022-08-21T03:32:26;101678.25;;;10.29;100.00
44140;BME280;29803;51.048;4.686;2022-08-21T03:34:57;101674.69;;;10.29;100.00
44140;BME280;29803;51.048;4.686;2022-08-21T03:37:28;101673.16;;;10.26;100.00
44140;BME280;29803;51.048;4.686;2022-08-21T03:39:59;101669.78;;;10.24;100.00
44140;BME280;29803;51.048;4.686;2022-08-21T03:42:29;101673.56;;;10.22;100.00
44140;BME280;29803;51.048;4.686;2022-08-21T03:45:00;101675.13;;;10.15;100.00
44140;BME280;29803;51.048;4.686;2022-08-21T03:47:32;101668.63;;;10.07;100.00
44140;BME280;29803;51.048;4.686;2022-08-21T03:50:03;101663.84;;;10.01;100.00
44140;BME280;29803;51.048;4.686;2022-08-21T03:52:34;101664.13;;;9.98;100.00
44140;BME280;29803;51.048;4.686;2022-08-21T03:55:05;101666.13;;;9.96;100.00
44140;BME280;29803;51.048;4.686;2022-08-21T03:57:36;101663.72;;;9.93;100.00
44140;BME280;29803;51.048;4.686;2022-08-21T04:00:08;101666.28;;;9.95;100.00
44140;BME280;29803;51.048;4.686;2022-08-21T04:02:42;101660.75;;;9.96;100.00
44140;BME280;29803;51.048;4.686;2022-08-21T04:05:15;101666.81;;;9.98;100.00
44140;BME280;29803;51.048;4.686;2022-08-21T04:08:00;101665.84;;;9.99;100.00
44140;BME280;29803;51.048;4.686;2022-08-21T04:10:35;101670.22;;;10.00;100.00
44140;BME280;29803;51.048;4.686;2022-08-21T04:13:07;101670.91;;;10.02;100.00
44140;BME280;29803;51.048;4.686;2022-08-21T04:15:37;101667.22;;;10.03;100.00
44140;BME280;29803;51.048;4.686;2022-08-21T04:18:09;101668.06;;;10.04;100.00
44140;BME280;29803;51.048;4.686;2022-08-21T04:20:42;101676.97;;;10.04;100.00
44140;BME280;29803;51.048;4.686;2022-08-21T04:23:13;101670.63;;;10.05;100.00
44140;BME280;29803;51.048;4.686;2022-08-21T04:25:43;101676.69;;;10.07;100.00
44140;BME280;29803;51.048;4.686;2022-08-21T04:28:14;101681.03;;;10.08;100.00
44140;BME280;29803;51.048;4.686;2022-08-21T04:30:44;101684.72;;;10.07;100.00
44140;BME280;29803;51.048;4.686;2022-08-21T04:33:15;101681.19;;;10.07;100.00
44140;BME280;29803;51.048;4.686;2022-08-21T04:35:46;101677.69;;;10.06;100.00
44140;BME280;29803;51.048;4.686;2022-08-21T04:38:17;101683.31;;;10.03;100.00
44140;BME280;29803;51.048;4.686;2022-08-21T04:40:49;101690.50;;;10.03;100.00
44140;BME280;29803;51.048;4.686;2022-08-21T04:43:20;101698.56;;;10.03;100.00
44140;BME280;29803;51.048;4.686;2022-08-21T04:45:53;101691.22;;;10.05;100.00
44140;BME280;29803;51.048;4.686;2022-08-21T04:48:24;101691.91;;;10.07;100.00
44140;BME280;29803;51.048;4.686;2022-08-21T04:54:06;101691.66;;;10.10;100.00
44140;BME280;29803;51.048;4.686;2022-08-21T04:56:43;101689.50;;;10.13;100.00
44140;BME280;29803;51.048;4.686;2022-08-21T04:59:19;101691.06;;;10.16;100.00
44140;BME280;29803;51.048;4.686;2022-08-21T05:01:51;101692.50;;;10.20;100.00
44140;BME280;29803;51.048;4.686;2022-08-21T05:04:26;101695.00;;;10.22;100.00
44140;BME280;29803;51.048;4.686;2022-08-21T05:07:02;101696.59;;;10.24;100.00
44140;BME280;29803;51.048;4.686;2022-08-21T05:09:34;101703.66;;;10.25;100.00
44140;BME280;29803;51.048;4.686;2022-08-21T05:12:05;101699.97;;;10.26;100.00
44140;BME280;29803;51.048;4.686;2022-08-21T05:14:36;101706.03;;;10.28;100.00
44140;BME280;29803;51.048;4.686;2022-08-21T05:17:07;101708.84;;;10.36;100.00
44140;BME280;29803;51.048;4.686;2022-08-21T05:19:37;101709.97;;;10.44;100.00
44140;BME280;29803;51.048;4.686;2022-08-21T05:22:08;101709.25;;;10.51;100.00
44140;BME280;29803;51.048;4.686;2022-08-21T05:24:39;101706.97;;;10.56;100.00
44140;BME280;29803;51.048;4.686;2022-08-21T05:27:09;101710.91;;;10.62;100.00
44140;BME280;29803;51.048;4.686;2022-08-21T05:29:40;101714.69;;;10.69;100.00
44140;BME280;29803;51.048;4.686;2022-08-21T05:32:11;101708.34;;;10.80;100.00
44140;BME280;29803;51.048;4.686;2022-08-21T05:34:42;101707.81;;;10.94;100.00
44140;BME280;29803;51.048;4.686;2022-08-21T05:37:13;101705.38;;;11.10;100.00
44140;BME280;29803;51.048;4.686;2022-08-21T05:39:45;101712.78;;;11.26;100.00
44140;BME280;29803;51.048;4.686;2022-08-21T05:42:15;101714.97;;;11.40;100.00
44140;BME280;29803;51.048;4.686;2022-08-21T05:44:46;101714.59;;;11.53;100.00
44140;BME280;29803;51.048;4.686;2022-08-21T05:47:17;101717.44;;;11.70;100.00
44140;BME280;29803;51.048;4.686;2022-08-21T05:49:47;101724.72;;;11.87;100.00
44140;BME280;29803;51.048;4.686;2022-08-21T05:52:20;101724.41;;;12.08;100.00
44140;BME280;29803;51.048;4.686;2022-08-21T05:54:51;101720.81;;;12.43;100.00
44140;BME280;29803;51.048;4.686;2022-08-21T05:57:24;101726.47;;;13.18;100.00
44140;BME280;29803;51.048;4.686;2022-08-21T05:59:55;101725.53;;;14.10;100.00
44140;BME280;29803;51.048;4.686;2022-08-21T06:02:26;101720.72;;;15.02;100.00
44140;BME280;29803;51.048;4.686;2022-08-21T06:04:57;101721.72;;;15.79;100.00
44140;BME280;29803;51.048;4.686;2022-08-21T06:07:27;101713.03;;;16.30;100.00
44140;BME280;29803;51.048;4.686;2022-08-21T06:09:59;101697.72;;;17.04;100.00
44140;BME280;29803;51.048;4.686;2022-08-21T06:12:29;101704.72;;;17.65;100.00
44140;BME280;29803;51.048;4.686;2022-08-21T06:15:00;101706.38;;;18.23;100.00
44140;BME280;29803;51.048;4.686;2022-08-21T06:17:30;101710.53;;;18.75;100.00
44140;BME280;29803;51.048;4.686;2022-08-21T06:20:02;101711.81;;;19.14;100.00
44140;BME280;29803;51.048;4.686;2022-08-21T06:22:33;101722.41;;;19.44;100.00
44140;BME280;29803;51.048;4.686;2022-08-21T06:25:04;101718.97;;;19.83;100.00
44140;BME280;29803;51.048;4.686;2022-08-21T06:27:35;101717.75;;;20.12;100.00
44140;BME280;29803;51.048;4.686;2022-08-21T06:30:06;101723.44;;;20.37;100.00
44140;BME280;29803;51.048;4.686;2022-08-21T06:32:37;101728.28;;;20.75;100.00
44140;BME280;29803;51.048;4.686;2022-08-21T06:35:08;101737.47;;;20.93;100.00
44140;BME280;29803;51.048;4.686;2022-08-21T06:37:39;101740.22;;;21.52;100.00
44140;BME280;29803;51.048;4.686;2022-08-21T06:40:10;101733.59;;;21.79;100.00
44140;BME280;29803;51.048;4.686;2022-08-21T06:42:40;101736.75;;;21.76;100.00
44140;BME280;29803;51.048;4.686;2022-08-21T06:45:11;101732.13;;;21.77;100.00
44140;BME280;29803;51.048;4.686;2022-08-21T06:47:41;101728.47;;;21.89;100.00
44140;BME280;29803;51.048;4.686;2022-08-21T06:50:12;101720.97;;;21.40;100.00
44140;BME280;29803;51.048;4.686;2022-08-21T06:52:42;101722.31;;;21.62;100.00
44140;BME280;29803;51.048;4.686;2022-08-21T06:55:13;101720.09;;;21.84;100.00
44140;BME280;29803;51.048;4.686;2022-08-21T06:57:44;101716.91;;;21.87;100.00
44140;BME280;29803;51.048;4.686;2022-08-21T07:00:15;101726.69;;;22.33;100.00
44140;BME280;29803;51.048;4.686;2022-08-21T07:02:45;101717.00;;;22.81;100.00
44140;BME280;29803;51.048;4.686;2022-08-21T07:05:16;101716.22;;;23.17;100.00
44140;BME280;29803;51.048;4.686;2022-08-21T07:07:46;101727.69;;;22.64;100.00
44140;BME280;29803;51.048;4.686;2022-08-21T07:10:17;101721.78;;;21.85;100.00
44140;BME280;29803;51.048;4.686;2022-08-21T07:12:49;101712.09;;;22.21;100.00
44140;BME280;29803;51.048;4.686;2022-08-21T07:15:20;101712.88;;;21.96;100.00
44140;BME280;29803;51.048;4.686;2022-08-21T07:17:50;101719.22;;;22.47;100.00
44140;BME280;29803;51.048;4.686;2022-08-21T07:20:21;101721.63;;;23.05;100.00
44140;BME280;29803;51.048;4.686;2022-08-21T07:22:52;101720.03;;;23.16;100.00
44140;BME280;29803;51.048;4.686;2022-08-21T07:25:22;101722.84;;;23.76;100.00
44140;BME280;29803;51.048;4.686;2022-08-21T07:27:53;101724.31;;;23.42;100.00
44140;BME280;29803;51.048;4.686;2022-08-21T07:30:24;101725.94;;;23.80;100.00
44140;BME280;29803;51.048;4.686;2022-08-21T07:32:55;101718.97;;;23.95;100.00
44140;BME280;29803;51.048;4.686;2022-08-21T07:35:25;101714.84;;;24.16;100.00
44140;BME280;29803;51.048;4.686;2022-08-21T07:37:58;101729.84;;;24.56;100.00
44140;BME280;29803;51.048;4.686;2022-08-21T07:40:28;101723.63;;;24.48;100.00
44140;BME280;29803;51.048;4.686;2022-08-21T07:43:02;101733.22;;;24.16;100.00
44140;BME280;29803;51.048;4.686;2022-08-21T07:45:33;101728.06;;;24.08;100.00
44140;BME280;29803;51.048;4.686;2022-08-21T07:48:04;101732.75;;;24.31;100.00
44140;BME280;29803;51.048;4.686;2022-08-21T07:50:35;101731.91;;;23.76;100.00
44140;BME280;29803;51.048;4.686;2022-08-21T07:53:05;101729.84;;;24.56;100.00
44140;BME280;29803;51.048;4.686;2022-08-21T07:55:37;101733.16;;;24.81;100.00
44140;BME280;29803;51.048;4.686;2022-08-21T07:58:08;101729.47;;;24.87;100.00
44140;BME280;29803;51.048;4.686;2022-08-21T08:00:39;101722.97;;;25.28;100.00
44140;BME280;29803;51.048;4.686;2022-08-21T08:03:10;101722.53;;;25.48;100.00
44140;BME280;29803;51.048;4.686;2022-08-21T08:05:41;101722.63;;;25.53;100.00
44140;BME280;29803;51.048;4.686;2022-08-21T08:08:11;101722.03;;;26.08;94.09
44140;BME280;29803;51.048;4.686;2022-08-21T08:10:43;101719.72;;;26.34;97.47
44140;BME280;29803;51.048;4.686;2022-08-21T08:13:14;101718.75;;;26.57;90.92
44140;BME280;29803;51.048;4.686;2022-08-21T08:15:44;101715.72;;;26.25;91.58
44140;BME280;29803;51.048;4.686;2022-08-21T08:18:15;101711.38;;;25.67;97.03
44140;BME280;29803;51.048;4.686;2022-08-21T08:20:45;101711.38;;;25.67;95.11
44140;BME280;29803;51.048;4.686;2022-08-21T08:23:16;101713.69;;;25.18;99.09
44140;BME280;29803;51.048;4.686;2022-08-21T08:25:46;101704.88;;;24.69;100.00
44140;BME280;29803;51.048;4.686;2022-08-21T08:28:17;101706.78;;;24.92;100.00
44140;BME280;29803;51.048;4.686;2022-08-21T08:30:48;101698.66;;;25.20;100.00
44140;BME280;29803;51.048;4.686;2022-08-21T08:33:19;101698.31;;;25.45;100.00
44140;BME280;29803;51.048;4.686;2022-08-21T08:35:51;101692.88;;;25.91;100.00
44140;BME280;29803;51.048;4.686;2022-08-21T08:38:24;101696.28;;;26.15;95.41
44140;BME280;29803;51.048;4.686;2022-08-21T08:43:50;101694.94;;;25.15;97.47
44140;BME280;29803;51.048;4.686;2022-08-21T08:46:31;101688.97;;;25.06;100.00
44140;BME280;29803;51.048;4.686;2022-08-21T08:49:09;101688.97;;;25.18;100.00
44140;BME280;29803;51.048;4.686;2022-08-21T08:51:48;101689.91;;;25.23;100.00
44140;BME280;29803;51.048;4.686;2022-08-21T08:54:42;101691.66;;;25.29;98.09
44140;BME280;29803;51.048;4.686;2022-08-21T08:57:17;101685.69;;;25.33;95.84
44140;BME280;29803;51.048;4.686;2022-08-21T08:59:50;101679.56;;;25.42;91.88
44140;BME280;29803;51.048;4.686;2022-08-21T09:02:22;101694.72;;;25.16;96.87
44140;BME280;29803;51.048;4.686;2022-08-21T09:04:54;101694.25;;;25.08;97.69
44140;BME280;29803;51.048;4.686;2022-08-21T09:10:56;101677.84;;;25.53;98.48
44140;BME280;29803;51.048;4.686;2022-08-21T09:13:55;101675.81;;;26.78;84.74
44140;BME280;29803;51.048;4.686;2022-08-21T09:23:04;101671.38;;;25.88;82.11
44140;BME280;29803;51.048;4.686;2022-08-21T09:28:34;101669.38;;;25.83;81.79
44140;BME280;29803;51.048;4.686;2022-08-21T09:31:07;101670.19;;;25.83;82.80
44140;BME280;29803;51.048;4.686;2022-08-21T09:33:38;101667.44;;;25.55;81.24
44140;BME280;29803;51.048;4.686;2022-08-21T09:36:09;101677.84;;;25.24;86.32
44140;BME280;29803;51.048;4.686;2022-08-21T09:38:40;101677.06;;;25.12;85.47
44140;BME280;29803;51.048;4.686;2022-08-21T09:41:10;101673.88;;;24.80;90.99
44140;BME280;29803;51.048;4.686;2022-08-21T09:43:52;101679.25;;;24.51;95.37
44140;BME280;29803;51.048;4.686;2022-08-21T09:46:25;101674.09;;;24.78;94.44
44140;BME280;29803;51.048;4.686;2022-08-21T09:48:58;101675.00;;;25.19;89.89
44140;BME280;29803;51.048;4.686;2022-08-21T09:51:34;101673.00;;;25.72;87.84
44140;BME280;29803;51.048;4.686;2022-08-21T09:56:39;101675.63;;;26.63;81.58
44140;BME280;29803;51.048;4.686;2022-08-21T09:59:31;101662.13;;;26.44;75.73
44140;BME280;29803;51.048;4.686;2022-08-21T10:02:31;101656.13;;;25.97;75.87
44140;BME280;29803;51.048;4.686;2022-08-21T10:05:08;101657.53;;;24.73;82.70
44140;BME280;29803;51.048;4.686;2022-08-21T10:07:45;101658.00;;;24.12;90.89
44140;BME280;29803;51.048;4.686;2022-08-21T10:10:22;101663.81;;;24.03;94.75
44140;BME280;29803;51.048;4.686;2022-08-21T10:18:32;101659.22;;;23.74;100.00
44140;BME280;29803;51.048;4.686;2022-08-21T10:21:19;101656.28;;;23.87;100.00
44140;BME280;29803;51.048;4.686;2022-08-21T10:30:08;101660.91;;;24.40;97.67
44140;BME280;29803;51.048;4.686;2022-08-21T10:35:33;101649.50;;;25.07;97.96
44140;BME280;29803;51.048;4.686;2022-08-21T10:47:03;101630.22;;;26.09;82.75
44140;BME280;29803;51.048;4.686;2022-08-21T10:52:33;101634.25;;;25.73;86.79
44140;BME280;29803;51.048;4.686;2022-08-21T10:55:08;101634.72;;;26.16;77.70
44140;BME280;29803;51.048;4.686;2022-08-21T10:58:10;101642.63;;;25.78;79.63
44140;BME280;29803;51.048;4.686;2022-08-21T11:00:47;101638.09;;;25.72;82.33
44140;BME280;29803;51.048;4.686;2022-08-21T11:03:35;101641.41;;;25.86;83.19
44140;BME280;29803;51.048;4.686;2022-08-21T11:09:14;101637.00;;;25.56;80.94
44140;BME280;29803;51.048;4.686;2022-08-21T11:12:06;101640.31;;;25.58;87.21
44140;BME280;29803;51.048;4.686;2022-08-21T11:14:47;101635.00;;;25.69;85.82
44140;BME280;29803;51.048;4.686;2022-08-21T11:17:27;101637.06;;;26.07;81.29
44140;BME280;29803;51.048;4.686;2022-08-21T11:23:10;101631.00;;;26.60;75.57
44140;BME280;29803;51.048;4.686;2022-08-21T11:25:49;101641.44;;;26.42;77.61
44140;BME280;29803;51.048;4.686;2022-08-21T11:28:27;101637.34;;;26.83;76.21
44140;BME280;29803;51.048;4.686;2022-08-21T11:41:40;101625.72;;;26.98;71.86
44140;BME280;29803;51.048;4.686;2022-08-21T11:44:23;101636.00;;;26.64;74.79
44140;BME280;29803;51.048;4.686;2022-08-21T11:50:06;101631.13;;;26.49;73.91
44140;BME280;29803;51.048;4.686;2022-08-21T11:52:49;101633.38;;;26.18;75.26
44140;BME280;29803;51.048;4.686;2022-08-21T11:55:36;101630.38;;;26.37;73.64
44140;BME280;29803;51.048;4.686;2022-08-21T11:58:17;101625.69;;;26.37;72.00
44140;BME280;29803;51.048;4.686;2022-08-21T12:00:55;101624.56;;;25.82;75.63
44140;BME280;29803;51.048;4.686;2022-08-21T12:03:31;101619.88;;;25.66;75.23
44140;BME280;29803;51.048;4.686;2022-08-21T12:06:09;101614.38;;;25.66;72.97
44140;BME280;29803;51.048;4.686;2022-08-21T12:08:43;101619.31;;;25.36;75.45
44140;BME280;29803;51.048;4.686;2022-08-21T12:16:37;101605.34;;;25.54;78.27
44140;BME280;29803;51.048;4.686;2022-08-21T12:19:11;101606.72;;;25.85;71.40
44140;BME280;29803;51.048;4.686;2022-08-21T12:22:06;101610.13;;;25.75;71.79
44140;BME280;29803;51.048;4.686;2022-08-21T12:24:43;101607.16;;;25.77;70.91
44140;BME280;29803;51.048;4.686;2022-08-21T12:30:01;101608.91;;;25.38;73.16
44140;BME280;29803;51.048;4.686;2022-08-21T12:32:45;101615.13;;;24.93;77.24
44140;BME280;29803;51.048;4.686;2022-08-21T12:35:35;101628.53;;;24.77;75.84
44140;BME280;29803;51.048;4.686;2022-08-21T12:38:14;101622.97;;;24.61;77.11
44140;BME280;29803;51.048;4.686;2022-08-21T12:40:52;101623.91;;;24.54;77.35
44140;BME280;29803;51.048;4.686;2022-08-21T12:43:40;101622.53;;;24.40;78.97
44140;BME280;29803;51.048;4.686;2022-08-21T12:46:18;101624.41;;;24.51;77.18
44140;BME280;29803;51.048;4.686;2022-08-21T12:49:08;101628.47;;;24.37;81.60
44140;BME280;29803;51.048;4.686;2022-08-21T12:51:49;101621.06;;;24.49;76.66
44140;BME280;29803;51.048;4.686;2022-08-21T12:54:39;101627.50;;;24.43;80.66
44140;BME280;29803;51.048;4.686;2022-08-21T12:57:20;101635.69;;;24.90;77.37
44140;BME280;29803;51.048;4.686;2022-08-21T12:59:53;101630.22;;;25.19;72.68
44140;BME280;29803;51.048;4.686;2022-08-21T13:02:29;101627.03;;;25.10;73.19
44140;BME280;29803;51.048;4.686;2022-08-21T13:05:04;101626.28;;;25.26;75.10
44140;BME280;29803;51.048;4.686;2022-08-21T13:07:36;101622.91;;;25.53;73.72
44140;BME280;29803;51.048;4.686;2022-08-21T13:10:25;101613.03;;;25.69;72.83
44140;BME280;29803;51.048;4.686;2022-08-21T13:13:04;101616.03;;;25.67;72.81
44140;BME280;29803;51.048;4.686;2022-08-21T13:15:37;101624.63;;;25.71;72.56
44140;BME280;29803;51.048;4.686;2022-08-21T13:18:19;101623.53;;;26.05;69.19
44140;BME280;29803;51.048;4.686;2022-08-21T13:20:50;101622.38;;;26.18;69.37
44140;BME280;29803;51.048;4.686;2022-08-21T13:23:25;101619.13;;;26.04;72.40
44140;BME280;29803;51.048;4.686;2022-08-21T13:25:56;101618.34;;;25.58;70.61
44140;BME280;29803;51.048;4.686;2022-08-21T13:28:46;101613.59;;;25.54;73.52
44140;BME280;29803;51.048;4.686;2022-08-21T13:31:25;101611.09;;;25.69;72.84
44140;BME280;29803;51.048;4.686;2022-08-21T13:33:56;101620.69;;;25.67;74.61
44140;BME280;29803;51.048;4.686;2022-08-21T13:36:32;101623.44;;;25.67;68.85
44140;BME280;29803;51.048;4.686;2022-08-21T13:39:07;101622.81;;;25.19;70.39
44140;BME280;29803;51.048;4.686;2022-08-21T13:41:41;101618.13;;;24.91;71.00
44140;BME280;29803;51.048;4.686;2022-08-21T13:44:17;101616.78;;;24.94;71.74
44140;BME280;29803;51.048;4.686;2022-08-21T13:46:49;101614.66;;;24.96;73.82
44140;BME280;29803;51.048;4.686;2022-08-21T13:49:28;101609.38;;;25.06;70.57
44140;BME280;29803;51.048;4.686;2022-08-21T13:52:00;101614.38;;;25.21;71.63
44140;BME280;29803;51.048;4.686;2022-08-21T13:54:58;101611.00;;;25.76;72.08
44140;BME280;29803;51.048;4.686;2022-08-21T13:57:32;101611.19;;;26.25;67.50
44140;BME280;29803;51.048;4.686;2022-08-21T14:00:26;101604.63;;;26.43;67.31
44140;BME280;29803;51.048;4.686;2022-08-21T14:03:29;101602.38;;;25.72;66.35
44140;BME280;29803;51.048;4.686;2022-08-21T14:06:01;101606.25;;;25.60;70.73
44140;BME280;29803;51.048;4.686;2022-08-21T14:08:35;101602.41;;;26.06;68.90
44140;BME280;29803;51.048;4.686;2022-08-21T14:11:11;101597.03;;;26.33;70.54
44140;BME280;29803;51.048;4.686;2022-08-21T14:13:45;101597.59;;;26.52;66.64
44140;BME280;29803;51.048;4.686;2022-08-21T14:16:20;101600.91;;;26.54;64.02
44140;BME280;29803;51.048;4.686;2022-08-21T14:21:42;101606.69;;;27.18;65.06
44140;BME280;29803;51.048;4.686;2022-08-21T14:26:57;101605.03;;;27.44;63.69
44140;BME280;29803;51.048;4.686;2022-08-21T14:29:35;101595.63;;;27.40;63.00
44140;BME280;29803;51.048;4.686;2022-08-21T14:32:12;101593.03;;;27.28;61.32
44140;BME280;29803;51.048;4.686;2022-08-21T14:34:43;101597.50;;;27.34;61.81
44140;BME280;29803;51.048;4.686;2022-08-21T14:37:14;101594.84;;;27.18;59.55